Terminal Aerodrome Forecast
Issued by NWS Sterling, VA

Home | Current Version | Previous Version | Text Only | Print | Product List | Glossary On
Versions: 1 2 3 4 5 6 7 8 9 10 11 12 13 14 15 16 17 18 19 20 21 22 23
000
FTUS41 KLWX 251200 AAA
TAFBWI
TAF AMD
KBWI 251222Z 2512/2618 26005KT P6SM BKN040 OVC200
     FM252000 32005KT P6SM BKN250
     FM252300 03005KT P6SM OVC090
     FM260100 05005KT P6SM -SN OVC050
     FM260300 05006KT 5SM -SN OVC050
     FM260500 05008KT 3SM -SN OVC050
     FM260800 05010KT 1SM -SN OVC015
     FM261100 06010KT 1/2SM SN OVC008=

USA.gov is the U.S. government's official web portal to all federal, state and local government web resources and services.